sensor_id;sensor_type;location;lat;lon;timestamp;temperature;humidity
51579;DHT22;47998;53.242;6.386;2024-01-16T11:50:07;0.20;99.90
51579;DHT22;47998;53.242;6.386;2024-01-16T11:52:46;0.00;99.90
51579;DHT22;47998;53.242;6.386;2024-01-16T11:55:30;0.10;99.90
51579;DHT22;47998;53.242;6.386;2024-01-16T12:00:47;0.20;99.90
51579;DHT22;47998;53.242;6.386;2024-01-16T12:03:18;0.30;99.90
51579;DHT22;47998;53.242;6.386;2024-01-16T12:05:57;0.00;99.90
51579;DHT22;47998;53.242;6.386;2024-01-16T12:08:23;0.20;99.90
51579;DHT22;47998;53.242;6.386;2024-01-16T12:10:49;0.30;99.90
51579;DHT22;47998;53.242;6.386;2024-01-16T12:13:15;0.30;99.90
51579;DHT22;47998;53.242;6.386;2024-01-16T12:15:42;0.20;99.90
51579;DHT22;47998;53.242;6.386;2024-01-16T12:18:08;0.00;99.90
51579;DHT22;47998;53.242;6.386;2024-01-16T12:20:37;-0.10;99.90
51579;DHT22;47998;53.242;6.386;2024-01-16T12:23:04;0.30;99.90
51579;DHT22;47998;53.242;6.386;2024-01-16T12:25:32;0.10;99.90
51579;DHT22;47998;53.242;6.386;2024-01-16T12:28:02;0.30;99.90
51579;DHT22;47998;53.242;6.386;2024-01-16T12:30:33;0.00;99.90
51579;DHT22;47998;53.242;6.386;2024-01-16T12:35:39;0.40;99.90
51579;DHT22;47998;53.242;6.386;2024-01-16T12:38:07;0.10;99.90
51579;DHT22;47998;53.242;6.386;2024-01-16T12:40:37;0.40;99.90
51579;DHT22;47998;53.242;6.386;2024-01-16T12:43:08;0.50;99.90
51579;DHT22;47998;53.242;6.386;2024-01-16T12:45:37;0.60;99.90
51579;DHT22;47998;53.242;6.386;2024-01-16T12:48:04;0.70;99.90
51579;DHT22;47998;53.242;6.386;2024-01-16T12:50:31;0.70;99.90
51579;DHT22;47998;53.242;6.386;2024-01-16T12:53:09;0.90;99.90
51579;DHT22;47998;53.242;6.386;2024-01-16T12:55:39;1.30;99.90
51579;DHT22;47998;53.242;6.386;2024-01-16T12:58:15;1.50;99.90
51579;DHT22;47998;53.242;6.386;2024-01-16T13:00:45;1.70;99.90
51579;DHT22;47998;53.242;6.386;2024-01-16T13:03:22;1.50;99.90
51579;DHT22;47998;53.242;6.386;2024-01-16T13:05:58;1.90;99.90
51579;DHT22;47998;53.242;6.386;2024-01-16T13:08:25;2.00;99.90
51579;DHT22;47998;53.242;6.386;2024-01-16T13:11:08;2.10;99.90
51579;DHT22;47998;53.242;6.386;2024-01-16T13:13:34;2.10;99.90
51579;DHT22;47998;53.242;6.386;2024-01-16T13:16:01;2.00;99.90
51579;DHT22;47998;53.242;6.386;2024-01-16T13:18:28;2.10;99.90
51579;DHT22;47998;53.242;6.386;2024-01-16T13:20:56;2.30;99.90
51579;DHT22;47998;53.242;6.386;2024-01-16T13:23:22;2.20;99.90
51579;DHT22;47998;53.242;6.386;2024-01-16T13:25:51;2.30;99.90
51579;DHT22;47998;53.242;6.386;2024-01-16T13:28:18;2.20;99.90
51579;DHT22;47998;53.242;6.386;2024-01-16T13:30:44;2.40;99.90
51579;DHT22;47998;53.242;6.386;2024-01-16T13:33:11;2.50;99.90
51579;DHT22;47998;53.242;6.386;2024-01-16T13:35:45;2.60;99.90
51579;DHT22;47998;53.242;6.386;2024-01-16T13:38:14;2.50;99.90
51579;DHT22;47998;53.242;6.386;2024-01-16T13:40:42;2.50;99.90
51579;DHT22;47998;53.242;6.386;2024-01-16T13:43:08;2.50;99.90
51579;DHT22;47998;53.242;6.386;2024-01-16T13:45:34;2.40;99.90
51579;DHT22;47998;53.242;6.386;2024-01-16T13:48:01;2.50;99.90
51579;DHT22;47998;53.242;6.386;2024-01-16T13:50:27;2.70;99.90
51579;DHT22;47998;53.242;6.386;2024-01-16T13:52:53;2.60;99.90
51579;DHT22;47998;53.242;6.386;2024-01-16T13:55:20;2.70;99.90
51579;DHT22;47998;53.242;6.386;2024-01-16T13:57:46;2.60;99.90
51579;DHT22;47998;53.242;6.386;2024-01-16T14:00:13;2.60;99.90
51579;DHT22;47998;53.242;6.386;2024-01-16T14:02:42;2.30;99.90
51579;DHT22;47998;53.242;6.386;2024-01-16T14:05:09;1.90;99.90
51579;DHT22;47998;53.242;6.386;2024-01-16T14:07:37;1.40;99.90
51579;DHT22;47998;53.242;6.386;2024-01-16T14:10:24;1.30;99.90
51579;DHT22;47998;53.242;6.386;2024-01-16T14:12:51;1.50;99.90
51579;DHT22;47998;53.242;6.386;2024-01-16T14:15:21;1.40;99.90
51579;DHT22;47998;53.242;6.386;2024-01-16T14:17:50;1.20;99.90
51579;DHT22;47998;53.242;6.386;2024-01-16T14:20:18;1.10;99.90
51579;DHT22;47998;53.242;6.386;2024-01-16T14:22:48;1.10;99.90
51579;DHT22;47998;53.242;6.386;2024-01-16T14:25:14;1.20;99.90
51579;DHT22;47998;53.242;6.386;2024-01-16T14:27:43;1.40;99.90
51579;DHT22;47998;53.242;6.386;2024-01-16T14:30:14;1.90;99.90
51579;DHT22;47998;53.242;6.386;2024-01-16T14:32:41;2.30;99.90
51579;DHT22;47998;53.242;6.386;2024-01-16T14:35:08;2.40;99.90
51579;DHT22;47998;53.242;6.386;2024-01-16T14:37:35;2.50;99.90
51579;DHT22;47998;53.242;6.386;2024-01-16T14:40:03;2.70;99.90
51579;DHT22;47998;53.242;6.386;2024-01-16T14:42:32;2.60;99.90
51579;DHT22;47998;53.242;6.386;2024-01-16T14:44:59;2.40;99.90
51579;DHT22;47998;53.242;6.386;2024-01-16T14:47:25;2.40;99.90
51579;DHT22;47998;53.242;6.386;2024-01-16T14:49:51;2.30;99.90
51579;DHT22;47998;53.242;6.386;2024-01-16T14:52:21;2.60;99.90
51579;DHT22;47998;53.242;6.386;2024-01-16T14:54:48;1.90;99.90
51579;DHT22;47998;53.242;6.386;2024-01-16T14:57:16;1.60;99.90
51579;DHT22;47998;53.242;6.386;2024-01-16T14:59:41;1.40;99.90
51579;DHT22;47998;53.242;6.386;2024-01-16T15:02:08;1.20;99.90
51579;DHT22;47998;53.242;6.386;2024-01-16T15:04:42;1.00;99.90
51579;DHT22;47998;53.242;6.386;2024-01-16T15:07:09;0.90;99.90
51579;DHT22;47998;53.242;6.386;2024-01-16T15:09:35;0.80;99.90
51579;DHT22;47998;53.242;6.386;2024-01-16T15:12:06;0.70;99.90
51579;DHT22;47998;53.242;6.386;2024-01-16T15:14:33;0.70;99.90
51579;DHT22;47998;53.242;6.386;2024-01-16T15:16:59;0.60;99.90
51579;DHT22;47998;53.242;6.386;2024-01-16T15:19:26;0.50;99.90
51579;DHT22;47998;53.242;6.386;2024-01-16T15:21:51;0.50;99.90
51579;DHT22;47998;53.242;6.386;2024-01-16T15:24:17;0.40;99.90
51579;DHT22;47998;53.242;6.386;2024-01-16T15:26:52;0.30;99.90
51579;DHT22;47998;53.242;6.386;2024-01-16T15:29:18;0.30;99.90
51579;DHT22;47998;53.242;6.386;2024-01-16T15:31:44;0.30;99.90
51579;DHT22;47998;53.242;6.386;2024-01-16T15:34:10;0.30;99.90
51579;DHT22;47998;53.242;6.386;2024-01-16T15:36:36;0.30;99.90
51579;DHT22;47998;53.242;6.386;2024-01-16T15:39:01;0.40;99.90
51579;DHT22;47998;53.242;6.386;2024-01-16T15:41:28;0.40;99.90
51579;DHT22;47998;53.242;6.386;2024-01-16T15:43:53;0.30;99.90
51579;DHT22;47998;53.242;6.386;2024-01-16T15:46:19;0.20;99.90
51579;DHT22;47998;53.242;6.386;2024-01-16T15:48:45;0.10;99.90
51579;DHT22;47998;53.242;6.386;2024-01-16T15:51:10;0.00;99.90
51579;DHT22;47998;53.242;6.386;2024-01-16T15:53:36;-0.10;99.90
51579;DHT22;47998;53.242;6.386;2024-01-16T15:56:03;-0.20;99.90
51579;DHT22;47998;53.242;6.386;2024-01-16T15:58:33;-0.30;99.90
51579;DHT22;47998;53.242;6.386;2024-01-16T16:00:59;-0.30;99.90
51579;DHT22;47998;53.242;6.386;2024-01-16T16:03:25;-0.30;99.90
51579;DHT22;47998;53.242;6.386;2024-01-16T16:05:51;-0.40;99.90
51579;DHT22;47998;53.242;6.386;2024-01-16T16:08:19;-0.40;99.90
51579;DHT22;47998;53.242;6.386;2024-01-16T16:10:46;-0.50;99.90
51579;DHT22;47998;53.242;6.386;2024-01-16T16:13:12;-0.50;99.90
51579;DHT22;47998;53.242;6.386;2024-01-16T16:15:41;-0.30;99.90
51579;DHT22;47998;53.242;6.386;2024-01-16T16:18:07;-0.70;99.90
51579;DHT22;47998;53.242;6.386;2024-01-16T16:20:34;-0.70;99.90
51579;DHT22;47998;53.242;6.386;2024-01-16T16:22:59;-0.70;99.90
51579;DHT22;47998;53.242;6.386;2024-01-16T16:25:25;-0.80;99.90
51579;DHT22;47998;53.242;6.386;2024-01-16T16:27:51;-0.90;99.90
51579;DHT22;47998;53.242;6.386;2024-01-16T16:30:17;-0.90;99.90
51579;DHT22;47998;53.242;6.386;2024-01-16T16:32:43;-1.00;99.90
51579;DHT22;47998;53.242;6.386;2024-01-16T16:35:09;-1.00;99.90
51579;DHT22;47998;53.242;6.386;2024-01-16T16:37:35;-0.90;99.90
51579;DHT22;47998;53.242;6.386;2024-01-16T16:40:01;-1.10;99.90
51579;DHT22;47998;53.242;6.386;2024-01-16T16:42:30;-1.10;99.90
51579;DHT22;47998;53.242;6.386;2024-01-16T16:44:56;-1.20;99.90
51579;DHT22;47998;53.242;6.386;2024-01-16T16:47:23;-1.20;99.90
51579;DHT22;47998;53.242;6.386;2024-01-16T16:49:49;-1.20;99.90
51579;DHT22;47998;53.242;6.386;2024-01-16T16:52:15;-1.30;99.90
51579;DHT22;47998;53.242;6.386;2024-01-16T16:54:40;-1.30;99.90
51579;DHT22;47998;53.242;6.386;2024-01-16T16:57:11;-1.30;99.90
51579;DHT22;47998;53.242;6.386;2024-01-16T16:59:37;-1.30;99.90
51579;DHT22;47998;53.242;6.386;2024-01-16T17:02:04;-1.30;99.90
51579;DHT22;47998;53.242;6.386;2024-01-16T17:04:30;-1.30;99.90
51579;DHT22;47998;53.242;6.386;2024-01-16T17:06:56;-1.20;99.90
51579;DHT22;47998;53.242;6.386;2024-01-16T17:09:23;-1.20;99.90
51579;DHT22;47998;53.242;6.386;2024-01-16T17:11:49;-1.20;99.90
51579;DHT22;47998;53.242;6.386;2024-01-16T17:14:15;-1.30;99.90
51579;DHT22;47998;53.242;6.386;2024-01-16T17:16:41;-1.30;99.90
51579;DHT22;47998;53.242;6.386;2024-01-16T17:19:08;-1.20;99.90
51579;DHT22;47998;53.242;6.386;2024-01-16T17:21:34;-1.20;99.90
51579;DHT22;47998;53.242;6.386;2024-01-16T17:23:59;-1.20;99.90
51579;DHT22;47998;53.242;6.386;2024-01-16T17:26:25;-1.20;99.90
51579;DHT22;47998;53.242;6.386;2024-01-16T17:28:53;-1.10;99.90
51579;DHT22;47998;53.242;6.386;2024-01-16T17:31:20;-1.10;99.90
51579;DHT22;47998;53.242;6.386;2024-01-16T17:33:46;-1.00;99.90
51579;DHT22;47998;53.242;6.386;2024-01-16T17:36:12;-0.90;99.90
51579;DHT22;47998;53.242;6.386;2024-01-16T17:38:38;-0.90;99.90
51579;DHT22;47998;53.242;6.386;2024-01-16T17:41:07;-0.90;99.90
51579;DHT22;47998;53.242;6.386;2024-01-16T17:43:33;-0.90;99.90
51579;DHT22;47998;53.242;6.386;2024-01-16T17:45:59;-0.80;99.90
51579;DHT22;47998;53.242;6.386;2024-01-16T17:48:24;-0.70;99.90
51579;DHT22;47998;53.242;6.386;2024-01-16T17:50:51;-0.70;99.90
51579;DHT22;47998;53.242;6.386;2024-01-16T17:53:17;-0.60;99.90
51579;DHT22;47998;53.242;6.386;2024-01-16T17:55:43;-0.60;99.90
51579;DHT22;47998;53.242;6.386;2024-01-16T17:58:09;-0.60;99.90
51579;DHT22;47998;53.242;6.386;2024-01-16T18:00:35;-0.50;99.90
51579;DHT22;47998;53.242;6.386;2024-01-16T18:03:04;-0.50;99.90
51579;DHT22;47998;53.242;6.386;2024-01-16T18:05:31;-0.20;99.90
51579;DHT22;47998;53.242;6.386;2024-01-16T18:07:59;-0.50;99.90
51579;DHT22;47998;53.242;6.386;2024-01-16T18:10:26;-0.50;99.90
51579;DHT22;47998;53.242;6.386;2024-01-16T18:12:52;-0.50;99.90
51579;DHT22;47998;53.242;6.386;2024-01-16T18:15:18;-0.50;99.90
51579;DHT22;47998;53.242;6.386;2024-01-16T18:17:47;-0.40;99.90
51579;DHT22;47998;53.242;6.386;2024-01-16T18:20:18;-0.40;99.90
51579;DHT22;47998;53.242;6.386;2024-01-16T18:22:46;-0.40;99.90
51579;DHT22;47998;53.242;6.386;2024-01-16T18:25:21;-0.40;99.90
51579;DHT22;47998;53.242;6.386;2024-01-16T18:27:51;-0.40;99.90
51579;DHT22;47998;53.242;6.386;2024-01-16T18:30:19;-0.30;99.90
51579;DHT22;47998;53.242;6.386;2024-01-16T18:32:48;-0.40;99.90
51579;DHT22;47998;53.242;6.386;2024-01-16T18:35:14;-0.30;99.90
51579;DHT22;47998;53.242;6.386;2024-01-16T18:37:43;0.10;99.90
51579;DHT22;47998;53.242;6.386;2024-01-16T18:40:09;-0.40;99.90
51579;DHT22;47998;53.242;6.386;2024-01-16T18:42:37;-0.40;99.90
51579;DHT22;47998;53.242;6.386;2024-01-16T18:45:03;-0.50;99.90
51579;DHT22;47998;53.242;6.386;2024-01-16T18:47:31;-0.50;99.90
51579;DHT22;47998;53.242;6.386;2024-01-16T18:49:57;-0.60;99.90
51579;DHT22;47998;53.242;6.386;2024-01-16T18:52:23;-0.60;99.90
51579;DHT22;47998;53.242;6.386;2024-01-16T18:54:49;-0.50;99.90
51579;DHT22;47998;53.242;6.386;2024-01-16T18:57:16;-0.60;99.90
51579;DHT22;47998;53.242;6.386;2024-01-16T18:59:43;-0.60;99.90
51579;DHT22;47998;53.242;6.386;2024-01-16T19:02:11;-0.70;99.90
51579;DHT22;47998;53.242;6.386;2024-01-16T19:04:37;-0.70;99.90
51579;DHT22;47998;53.242;6.386;2024-01-16T19:07:07;-0.70;99.90
51579;DHT22;47998;53.242;6.386;2024-01-16T19:09:40;-0.80;99.90
51579;DHT22;47998;53.242;6.386;2024-01-16T19:12:10;-0.80;99.90
51579;DHT22;47998;53.242;6.386;2024-01-16T19:14:41;-0.80;99.90
51579;DHT22;47998;53.242;6.386;2024-01-16T19:17:08;-0.90;99.90
51579;DHT22;47998;53.242;6.386;2024-01-16T19:19:36;-0.90;99.90
51579;DHT22;47998;53.242;6.386;2024-01-16T19:22:01;-1.00;99.90
51579;DHT22;47998;53.242;6.386;2024-01-16T19:24:29;-1.10;99.90
51579;DHT22;47998;53.242;6.386;2024-01-16T19:26:54;-1.10;99.90
51579;DHT22;47998;53.242;6.386;2024-01-16T19:29:20;-1.10;99.90
51579;DHT22;47998;53.242;6.386;2024-01-16T19:31:47;-1.20;99.90
51579;DHT22;47998;53.242;6.386;2024-01-16T19:34:13;-1.20;99.90
51579;DHT22;47998;53.242;6.386;2024-01-16T19:36:38;-1.30;99.90
51579;DHT22;47998;53.242;6.386;2024-01-16T19:39:07;-1.30;99.90
51579;DHT22;47998;53.242;6.386;2024-01-16T19:41:44;-1.20;99.90
51579;DHT22;47998;53.242;6.386;2024-01-16T19:44:10;-1.20;99.90
51579;DHT22;47998;53.242;6.386;2024-01-16T19:46:40;-1.20;99.90
51579;DHT22;47998;53.242;6.386;2024-01-16T19:49:07;-1.20;99.90
51579;DHT22;47998;53.242;6.386;2024-01-16T19:51:42;-1.30;99.90
51579;DHT22;47998;53.242;6.386;2024-01-16T19:54:09;-1.30;99.90
51579;DHT22;47998;53.242;6.386;2024-01-16T19:56:35;-1.20;99.90
51579;DHT22;47998;53.242;6.386;2024-01-16T19:59:02;-1.20;99.90
51579;DHT22;47998;53.242;6.386;2024-01-16T20:01:33;-1.10;99.90
51579;DHT22;47998;53.242;6.386;2024-01-16T20:04:00;-1.10;99.90
51579;DHT22;47998;53.242;6.386;2024-01-16T20:06:27;-1.00;99.90
51579;DHT22;47998;53.242;6.386;2024-01-16T20:08:53;-1.00;99.90
51579;DHT22;47998;53.242;6.386;2024-01-16T20:11:30;-1.00;99.90
51579;DHT22;47998;53.242;6.386;2024-01-16T20:13:57;-0.90;99.90
51579;DHT22;47998;53.242;6.386;2024-01-16T20:16:24;-0.80;99.90
51579;DHT22;47998;53.242;6.386;2024-01-16T20:18:57;-0.70;99.90
51579;DHT22;47998;53.242;6.386;2024-01-16T20:21:26;-0.60;99.90
51579;DHT22;47998;53.242;6.386;2024-01-16T20:23:52;-0.50;99.90
51579;DHT22;47998;53.242;6.386;2024-01-16T20:26:19;-0.40;99.90
51579;DHT22;47998;53.242;6.386;2024-01-16T20:28:45;-0.40;99.90
51579;DHT22;47998;53.242;6.386;2024-01-16T20:31:12;-0.20;99.90
51579;DHT22;47998;53.242;6.386;2024-01-16T20:33:41;-0.20;99.90
51579;DHT22;47998;53.242;6.386;2024-01-16T20:36:17;-0.30;99.90
51579;DHT22;47998;53.242;6.386;2024-01-16T20:38:45;-0.30;99.90
51579;DHT22;47998;53.242;6.386;2024-01-16T20:41:14;-0.30;99.90
51579;DHT22;47998;53.242;6.386;2024-01-16T20:43:40;-0.30;99.90
51579;DHT22;47998;53.242;6.386;2024-01-16T20:46:06;-0.30;99.90
51579;DHT22;47998;53.242;6.386;2024-01-16T20:48:34;-0.30;99.90
51579;DHT22;47998;53.242;6.386;2024-01-16T20:51:00;-0.40;99.90
51579;DHT22;47998;53.242;6.386;2024-01-16T20:53:27;-0.50;99.90
51579;DHT22;47998;53.242;6.386;2024-01-16T20:55:56;-0.50;99.90
51579;DHT22;47998;53.242;6.386;2024-01-16T20:58:23;-0.50;99.90
51579;DHT22;47998;53.242;6.386;2024-01-16T21:00:49;-0.50;99.90
51579;DHT22;47998;53.242;6.386;2024-01-16T21:03:16;-0.60;99.90
51579;DHT22;47998;53.242;6.386;2024-01-16T21:05:47;-0.50;99.90
51579;DHT22;47998;53.242;6.386;2024-01-16T21:08:14;-0.60;99.90
51579;DHT22;47998;53.242;6.386;2024-01-16T21:10:40;-0.60;99.90
51579;DHT22;47998;53.242;6.386;2024-01-16T21:13:08;-0.60;99.90
51579;DHT22;47998;53.242;6.386;2024-01-16T21:15:35;-0.60;99.90
51579;DHT22;47998;53.242;6.386;2024-01-16T21:18:01;-0.60;99.90
51579;DHT22;47998;53.242;6.386;2024-01-16T21:20:29;-0.60;99.90
51579;DHT22;47998;53.242;6.386;2024-01-16T21:22:55;-0.60;99.90
51579;DHT22;47998;53.242;6.386;2024-01-16T21:25:21;-0.60;99.90
51579;DHT22;47998;53.242;6.386;2024-01-16T21:27:50;-0.60;99.90
51579;DHT22;47998;53.242;6.386;2024-01-16T21:30:16;-0.60;99.90
51579;DHT22;47998;53.242;6.386;2024-01-16T21:32:42;-0.50;99.90
51579;DHT22;47998;53.242;6.386;2024-01-16T21:35:09;-0.50;99.90
51579;DHT22;47998;53.242;6.386;2024-01-16T21:37:36;-0.50;99.90
51579;DHT22;47998;53.242;6.386;2024-01-16T21:40:02;-0.50;99.90
51579;DHT22;47998;53.242;6.386;2024-01-16T21:42:31;-0.60;99.90
51579;DHT22;47998;53.242;6.386;2024-01-16T21:44:57;-0.60;99.90
51579;DHT22;47998;53.242;6.386;2024-01-16T21:47:23;-0.60;99.90
51579;DHT22;47998;53.242;6.386;2024-01-16T21:49:49;-0.60;99.90
51579;DHT22;47998;53.242;6.386;2024-01-16T21:52:15;-0.50;99.90
51579;DHT22;47998;53.242;6.386;2024-01-16T21:54:41;-0.60;99.90
51579;DHT22;47998;53.242;6.386;2024-01-16T21:57:07;-0.60;99.90
51579;DHT22;47998;53.242;6.386;2024-01-16T21:59:34;-0.60;99.90
51579;DHT22;47998;53.242;6.386;2024-01-16T22:02:00;-0.40;99.90
51579;DHT22;47998;53.242;6.386;2024-01-16T22:04:26;-0.30;99.90
51579;DHT22;47998;53.242;6.386;2024-01-16T22:06:52;-0.30;99.90
51579;DHT22;47998;53.242;6.386;2024-01-16T22:09:18;-0.30;99.90
51579;DHT22;47998;53.242;6.386;2024-01-16T22:11:47;0.00;99.90
51579;DHT22;47998;53.242;6.386;2024-01-16T22:14:14;-0.30;99.90
51579;DHT22;47998;53.242;6.386;2024-01-16T22:16:39;-0.20;99.90
51579;DHT22;47998;53.242;6.386;2024-01-16T22:19:06;-0.20;99.90
51579;DHT22;47998;53.242;6.386;2024-01-16T22:21:31;-0.20;99.90
51579;DHT22;47998;53.242;6.386;2024-01-16T22:23:59;-0.10;99.90
51579;DHT22;47998;53.242;6.386;2024-01-16T22:26:25;-0.10;99.90
51579;DHT22;47998;53.242;6.386;2024-01-16T22:28:51;-0.20;99.90
51579;DHT22;47998;53.242;6.386;2024-01-16T22:31:17;-0.10;99.90
51579;DHT22;47998;53.242;6.386;2024-01-16T22:33:42;-0.20;99.90
51579;DHT22;47998;53.242;6.386;2024-01-16T22:36:08;0.10;99.90
51579;DHT22;47998;53.242;6.386;2024-01-16T22:38:37;-0.20;99.90
51579;DHT22;47998;53.242;6.386;2024-01-16T22:41:03;-0.20;99.90
51579;DHT22;47998;53.242;6.386;2024-01-16T22:43:32;-0.10;99.90
51579;DHT22;47998;53.242;6.386;2024-01-16T22:45:58;-0.10;99.90
51579;DHT22;47998;53.242;6.386;2024-01-16T22:48:26;-0.10;99.90
51579;DHT22;47998;53.242;6.386;2024-01-16T22:50:51;0.10;99.90
51579;DHT22;47998;53.242;6.386;2024-01-16T22:53:17;-0.10;99.90
51579;DHT22;47998;53.242;6.386;2024-01-16T22:55:43;0.00;99.90
51579;DHT22;47998;53.242;6.386;2024-01-16T22:58:11;0.00;99.90
51579;DHT22;47998;53.242;6.386;2024-01-16T23:00:37;0.10;99.90
51579;DHT22;47998;53.242;6.386;2024-01-16T23:03:08;0.10;99.90
51579;DHT22;47998;53.242;6.386;2024-01-16T23:05:35;0.10;99.90
51579;DHT22;47998;53.242;6.386;2024-01-16T23:08:02;0.10;99.90
51579;DHT22;47998;53.242;6.386;2024-01-16T23:10:29;0.10;99.90
51579;DHT22;47998;53.242;6.386;2024-01-16T23:12:55;0.10;99.90
51579;DHT22;47998;53.242;6.386;2024-01-16T23:15:20;0.10;99.90
51579;DHT22;47998;53.242;6.386;2024-01-16T23:17:46;0.10;99.90
51579;DHT22;47998;53.242;6.386;2024-01-16T23:20:13;0.10;99.90
51579;DHT22;47998;53.242;6.386;2024-01-16T23:22:48;0.10;99.90
51579;DHT22;47998;53.242;6.386;2024-01-16T23:25:16;0.20;99.90
51579;DHT22;47998;53.242;6.386;2024-01-16T23:27:43;0.40;99.90
51579;DHT22;47998;53.242;6.386;2024-01-16T23:30:10;0.10;99.90
51579;DHT22;47998;53.242;6.386;2024-01-16T23:32:38;0.10;99.90
51579;DHT22;47998;53.242;6.386;2024-01-16T23:35:05;0.10;99.90
51579;DHT22;47998;53.242;6.386;2024-01-16T23:37:37;0.10;99.90
51579;DHT22;47998;53.242;6.386;2024-01-16T23:40:06;0.10;99.90
51579;DHT22;47998;53.242;6.386;2024-01-16T23:42:34;0.10;99.90
51579;DHT22;47998;53.242;6.386;2024-01-16T23:45:03;0.10;99.90
51579;DHT22;47998;53.242;6.386;2024-01-16T23:47:29;0.00;99.90
51579;DHT22;47998;53.242;6.386;2024-01-16T23:49:55;0.20;99.90
51579;DHT22;47998;53.242;6.386;2024-01-16T23:52:21;-0.10;99.90
51579;DHT22;47998;53.242;6.386;2024-01-16T23:54:46;-0.10;99.90
51579;DHT22;47998;53.242;6.386;2024-01-16T23:57:12;-0.10;99.90
51579;DHT22;47998;53.242;6.386;2024-01-16T23:59:39;-0.10;99.90
